Latest Weather Observations for Ocean Reef

IDW60801

Issued at 4:31 pm WST Tuesday 3 May 2016 (issued every 30 minutes, with the page automatically refreshed every 10 minutes)

About weather observations | Map of weather stations | Latest weather observations for WA | Other Formats
Station Details ID: 009214 Name: OCEAN REEF Lat: -31.76 Lon: 115.73 Height: 10.0 m
Data from the previous 72 hours. | See also: Recent months at Ocean Reef
Date/Time
WST
Temp
°C
App
Temp
°C
Dew
Point
Rel
Hum
%
Delta-T
°C
Wind Press
QNH
hPa
Press
MSL
hPa
Rain
since 9 am
mm
Dir
 
Spd
km/h
Gust
km/h
Spd
kts
Gust
kts
03/04:30pm - - - - - S 15 19 8 10 - - -
03/04:00pm - - - - - SSW 17 19 9 10 - - -
03/03:30pm - - - - - SSW 19 24 10 13 - - -
03/03:00pm - - - - - S 15 19 8 10 - - -
03/02:30pm - - - - - S 19 24 10 13 - - -
03/02:00pm - - - - - S 15 19 8 10 - - -
03/01:30pm - - - - - S 13 20 7 11 - - -
03/01:00pm - - - - - S 13 17 7 9 - - -
03/12:30pm - - - - - SE 11 17 6 9 - - -
03/12:00pm - - - - - SE 13 26 7 14 - - -
03/11:30am - - - - - SSE 17 24 9 13 - - -
03/11:00am - - - - - SE 15 28 8 15 - - -
03/10:30am - - - - - ESE 13 20 7 11 - - -
03/10:00am - - - - - E 17 26 9 14 - - -
03/09:30am - - - - - E 15 19 8 10 - - -
03/09:00am - - - - - E 15 19 8 10 - - -
03/08:30am - - - - - E 13 17 7 9 - - -
03/08:00am - - - - - ENE 13 17 7 9 - - -
03/07:30am - - - - - E 17 19 9 10 - - -
03/07:00am - - - - - E 17 19 9 10 - - -
03/06:30am - - - - - E 15 22 8 12 - - -
03/06:00am - - - - - E 15 19 8 10 - - -
03/05:30am - - - - - ESE 17 20 9 11 - - -
03/05:00am - - - - - ESE 13 17 7 9 - - -
03/04:30am - - - - - SE 15 19 8 10 - - -
03/04:00am - - - - - SE 15 20 8 11 - - -
03/03:30am - - - - - SE 15 19 8 10 - - -
03/03:00am - - - - - SE 19 26 10 14 - - -
03/02:30am - - - - - SE 19 28 10 15 - - -
03/02:00am - - - - - SE 17 28 9 15 - - -
03/01:30am - - - - - SE 15 19 8 10 - - -
03/01:00am - - - - - SE 15 22 8 12 - - -
03/12:30am - - - - - SE 13 17 7 9 - - -
03/12:00am - - - - - SE 13 15 7 8 - - -
 
Date/Time
WST
Temp
°C
App
Temp
°C
Dew
Point
Rel
Hum
%
Delta-T
°C
Wind Press
QNH
hPa
Press
MSL
hPa
Rain
since 9 am
mm
Dir
 
Spd
km/h
Gust
km/h
Spd
kts
Gust
kts
02/11:30pm - - - - - SE 13 15 7 8 - - -
02/11:00pm - - - - - SE 11 13 6 7 - - -
02/10:30pm - - - - - SE 13 13 7 7 - - -
02/10:00pm - - - - - SE 11 13 6 7 - - -
02/09:30pm - - - - - SE 9 11 5 6 - - -
02/09:00pm - - - - - SSE 9 11 5 6 - - -
02/08:30pm - - - - - S 20 28 11 15 - - -
02/08:00pm - - - - - S 24 30 13 16 - - -
02/07:30pm - - - - - SSW 22 30 12 16 - - -
02/07:00pm - - - - - S 24 30 13 16 - - -
02/06:30pm - - - - - SSW 19 22 10 12 - - -
02/06:00pm - - - - - SSW 24 30 13 16 - - -
02/05:30pm - - - - - S 11 13 6 7 - - -
02/05:00pm - - - - - SSW 9 11 5 6 - - -
02/04:30pm - - - - - S 7 11 4 6 - - -
02/04:00pm - - - - - WNW 7 7 4 4 - - -
02/03:30pm - - - - - WSW 9 11 5 6 - - -
02/03:00pm - - - - - SW 24 30 13 16 - - -
02/02:30pm - - - - - NW 9 13 5 7 - - -
02/02:00pm - - - - - NW 13 15 7 8 - - -
02/01:30pm - - - - - NW 13 17 7 9 - - -
02/01:00pm - - - - - WSW 15 20 8 11 - - -
02/12:30pm - - - - - NW 20 24 11 13 - - -
02/12:00pm - - - - - NW 24 26 13 14 - - -
02/11:30am - - - - - NNW 22 26 12 14 - - -
02/11:00am - - - - - NNW 20 24 11 13 - - -
02/10:30am - - - - - NNW 20 24 11 13 - - -
02/10:00am - - - - - NNW 15 19 8 10 - - -
02/09:30am - - - - - NNE 13 17 7 9 - - -
02/09:00am - - - - - NE 13 19 7 10 - - -
02/08:30am - - - - - NE 13 17 7 9 - - -
02/08:00am - - - - - NE 11 15 6 8 - - -
02/07:30am - - - - - ENE 15 17 8 9 - - -
02/07:00am - - - - - ENE 17 19 9 10 - - -
02/06:30am - - - - - ENE 17 20 9 11 - - -
02/06:00am - - - - - ENE 15 17 8 9 - - -
02/05:30am - - - - - ENE 15 17 8 9 - - -
02/05:00am - - - - - ENE 15 17 8 9 - - -
02/04:30am - - - - - ENE 15 17 8 9 - - -
02/04:00am - - - - - ENE 15 17 8 9 - - -
02/03:30am - - - - - ENE 15 17 8 9 - - -
02/03:00am - - - - - ENE 15 17 8 9 - - -
02/02:30am - - - - - ENE 15 17 8 9 - - -
02/02:00am - - - - - ENE 15 17 8 9 - - -
02/01:30am - - - - - ENE 13 15 7 8 - - -
02/01:00am - - - - - ENE 13 15 7 8 - - -
02/12:30am - - - - - ENE 13 13 7 7 - - -
02/12:00am - - - - - E 11 13 6 7 - - -
 
Date/Time
WST
Temp
°C
App
Temp
°C
Dew
Point
Rel
Hum
%
Delta-T
°C
Wind Press
QNH
hPa
Press
MSL
hPa
Rain
since 9 am
mm
Dir
 
Spd
km/h
Gust
km/h
Spd
kts
Gust
kts
01/11:30pm - - - - - E 9 11 5 6 - - -
01/11:00pm - - - - - ESE 9 11 5 6 - - -
01/10:30pm - - - - - ESE 9 11 5 6 - - -
01/10:00pm - - - - - ESE 9 11 5 6 - - -
01/09:30pm - - - - - ESE 9 11 5 6 - - -
01/09:00pm - - - - - SE 11 15 6 8 - - -
01/08:30pm - - - - - SE 9 11 5 6 - - -
01/08:00pm - - - - - SE 9 11 5 6 - - -
01/07:30pm - - - - - SSE 11 15 6 8 - - -
01/07:00pm - - - - - SSE 11 13 6 7 - - -
01/06:30pm - - - - - SSW 13 17 7 9 - - -
01/06:00pm - - - - - SSW 17 20 9 11 - - -
01/05:30pm - - - - - SSW 20 26 11 14 - - -
01/05:00pm - - - - - SSW 19 24 10 13 - - -
01/04:30pm - - - - - SSW 19 24 10 13 - - -
01/04:00pm - - - - - SSW 19 26 10 14 - - -
01/03:30pm - - - - - SW 19 24 10 13 - - -
01/03:00pm - - - - - SSW 20 26 11 14 - - -
01/02:30pm - - - - - SSW 20 30 11 16 - - -
01/02:00pm - - - - - SSW 20 26 11 14 - - -
01/01:30pm - - - - - SSW 20 26 11 14 - - -
01/01:00pm - - - - - SSW 19 26 10 14 - - -
01/12:30pm - - - - - SSW 17 22 9 12 - - -
01/12:00pm - - - - - SSW 15 19 8 10 - - -
01/11:30am - - - - - SSW 13 19 7 10 - - -
01/11:00am - - - - - SE 13 19 7 10 - - -
01/10:30am - - - - - ESE 13 19 7 10 - - -
01/10:00am - - - - - E 15 20 8 11 - - -
01/09:30am - - - - - E 13 19 7 10 - - -
01/09:00am - - - - - E 11 19 6 10 - - -
01/08:30am - - - - - E 17 28 9 15 - - -
01/08:00am - - - - - E 19 26 10 14 - - -
01/07:30am - - - - - E 17 24 9 13 - - -
01/07:00am - - - - - E 11 13 6 7 - - -
01/06:30am - - - - - E 13 17 7 9 - - -
01/06:00am - - - - - ENE 15 19 8 10 - - -
01/05:30am - - - - - E 13 17 7 9 - - -
01/05:00am - - - - - E 13 19 7 10 - - -
01/04:30am - - - - - E 15 19 8 10 - - -
01/04:00am - - - - - ESE 15 19 8 10 - - -
01/03:30am - - - - - E 15 20 8 11 - - -
01/03:00am - - - - - E 17 22 9 12 - - -
01/02:30am - - - - - ESE 15 19 8 10 - - -
01/02:00am - - - - - ESE 13 17 7 9 - - -
01/01:30am - - - - - ESE 13 17 7 9 - - -
01/01:00am - - - - - E 13 17 7 9 - - -
01/12:30am - - - - - ESE 9 13 5 7 - - -
01/12:00am - - - - - ESE 11 17 6 9 - - -
 
Date/Time
WST
Temp
°C
App
Temp
°C
Dew
Point
Rel
Hum
%
Delta-T
°C
Wind Press
QNH
hPa
Press
MSL
hPa
Rain
since 9 am
mm
Dir
 
Spd
km/h
Gust
km/h
Spd
kts
Gust
kts
30/11:30pm - - - - - SE 11 13 6 7 - - -
30/11:00pm - - - - - SSE 11 15 6 8 - - -
30/10:30pm - - - - - SE 11 17 6 9 - - -
30/10:00pm - - - - - ESE 11 15 6 8 - - -
30/09:30pm - - - - - SE 13 15 7 8 - - -
30/09:00pm - - - - - SE 13 15 7 8 - - -
30/08:30pm - - - - - SE 13 17 7 9 - - -
30/08:00pm - - - - - SE 15 17 8 9 - - -
30/07:30pm - - - - - SE 13 13 7 7 - - -
30/07:00pm - - - - - SSE 13 15 7 8 - - -
30/06:30pm - - - - - S 15 20 8 11 - - -
30/06:00pm - - - - - SSW 19 26 10 14 - - -
30/05:30pm - - - - - SSW 20 26 11 14 - - -
30/05:00pm - - - - - SSW 20 26 11 14 - - -

Other Formats:

Comma delimited format used in spreadsheet applications
http://www.bom.gov.au/fwo/IDW60801/IDW60801.94607.axf

JavaScript Object Notation format (JSON) in row-major order
http://www.bom.gov.au/fwo/IDW60801/IDW60801.94607.json